sensor_id;sensor_type;location;lat;lon;timestamp;P1;durP1;ratioP1;P2;durP2;ratioP2
53115;SDS011;39010;48.088;7.954;2022-10-26T00:03:10;5.47;;;1.77;;
53115;SDS011;39010;48.088;7.954;2022-10-26T00:05:36;6.32;;;1.80;;
53115;SDS011;39010;48.088;7.954;2022-10-26T00:08:03;6.75;;;1.90;;
53115;SDS011;39010;48.088;7.954;2022-10-26T00:10:29;6.13;;;1.83;;
53115;SDS011;39010;48.088;7.954;2022-10-26T00:12:57;4.80;;;1.77;;
53115;SDS011;39010;48.088;7.954;2022-10-26T00:15:23;6.10;;;1.90;;
53115;SDS011;39010;48.088;7.954;2022-10-26T00:20:17;3.35;;;1.70;;
53115;SDS011;39010;48.088;7.954;2022-10-26T00:25:10;8.30;;;1.90;;
53115;SDS011;39010;48.088;7.954;2022-10-26T00:27:36;3.03;;;1.48;;
53115;SDS011;39010;48.088;7.954;2022-10-26T00:32:30;5.40;;;1.75;;
53115;SDS011;39010;48.088;7.954;2022-10-26T00:34:57;8.55;;;2.00;;
53115;SDS011;39010;48.088;7.954;2022-10-26T00:37:41;7.47;;;1.70;;
53115;SDS011;39010;48.088;7.954;2022-10-26T00:40:07;7.13;;;1.83;;
53115;SDS011;39010;48.088;7.954;2022-10-26T00:42:34;7.57;;;2.10;;
53115;SDS011;39010;48.088;7.954;2022-10-26T00:45:06;5.07;;;1.63;;
53115;SDS011;39010;48.088;7.954;2022-10-26T00:47:44;3.03;;;1.60;;
53115;SDS011;39010;48.088;7.954;2022-10-26T00:50:15;6.03;;;1.90;;
53115;SDS011;39010;48.088;7.954;2022-10-26T00:53:07;4.82;;;2.08;;
53115;SDS011;39010;48.088;7.954;2022-10-26T00:55:36;7.35;;;1.60;;
53115;SDS011;39010;48.088;7.954;2022-10-26T00:58:07;4.50;;;1.70;;
53115;SDS011;39010;48.088;7.954;2022-10-26T01:00:35;3.95;;;1.70;;
53115;SDS011;39010;48.088;7.954;2022-10-26T01:03:06;7.05;;;1.67;;
53115;SDS011;39010;48.088;7.954;2022-10-26T01:05:35;5.63;;;2.10;;
53115;SDS011;39010;48.088;7.954;2022-10-26T01:08:04;5.60;;;1.80;;
53115;SDS011;39010;48.088;7.954;2022-10-26T01:10:33;8.45;;;1.90;;
53115;SDS011;39010;48.088;7.954;2022-10-26T01:13:01;4.00;;;1.60;;
53115;SDS011;39010;48.088;7.954;2022-10-26T01:15:30;5.60;;;1.48;;
53115;SDS011;39010;48.088;7.954;2022-10-26T01:18:03;9.55;;;1.75;;
53115;SDS011;39010;48.088;7.954;2022-10-26T01:21:25;7.15;;;1.77;;
53115;SDS011;39010;48.088;7.954;2022-10-26T01:23:33;8.73;;;1.55;;
53115;SDS011;39010;48.088;7.954;2022-10-26T01:26:16;6.10;;;1.60;;
53115;SDS011;39010;48.088;7.954;2022-10-26T01:31:43;5.07;;;1.63;;
53115;SDS011;39010;48.088;7.954;2022-10-26T01:34:42;8.55;;;1.52;;
53115;SDS011;39010;48.088;7.954;2022-10-26T01:37:12;5.25;;;1.77;;
53115;SDS011;39010;48.088;7.954;2022-10-26T01:39:50;7.40;;;1.80;;
53115;SDS011;39010;48.088;7.954;2022-10-26T01:42:20;7.30;;;1.70;;
53115;SDS011;39010;48.088;7.954;2022-10-26T01:44:50;5.95;;;1.67;;
53115;SDS011;39010;48.088;7.954;2022-10-26T01:47:21;9.35;;;1.85;;
53115;SDS011;39010;48.088;7.954;2022-10-26T01:49:53;7.18;;;1.65;;
53115;SDS011;39010;48.088;7.954;2022-10-26T01:52:21;3.58;;;1.75;;
53115;SDS011;39010;48.088;7.954;2022-10-26T01:54:48;7.22;;;1.85;;
53115;SDS011;39010;48.088;7.954;2022-10-26T01:57:16;6.45;;;1.80;;
53115;SDS011;39010;48.088;7.954;2022-10-26T02:02:45;4.78;;;1.98;;
53115;SDS011;39010;48.088;7.954;2022-10-26T02:08:26;3.83;;;1.65;;
53115;SDS011;39010;48.088;7.954;2022-10-26T02:13:46;5.22;;;1.80;;
53115;SDS011;39010;48.088;7.954;2022-10-26T02:16:20;5.07;;;1.70;;
53115;SDS011;39010;48.088;7.954;2022-10-26T02:19:19;3.97;;;1.60;;
53115;SDS011;39010;48.088;7.954;2022-10-26T02:22:18;9.25;;;1.52;;
53115;SDS011;39010;48.088;7.954;2022-10-26T02:24:50;6.85;;;1.77;;
53115;SDS011;39010;48.088;7.954;2022-10-26T02:27:22;4.57;;;1.83;;
53115;SDS011;39010;48.088;7.954;2022-10-26T02:29:54;8.45;;;2.00;;
53115;SDS011;39010;48.088;7.954;2022-10-26T02:32:23;3.97;;;1.80;;
53115;SDS011;39010;48.088;7.954;2022-10-26T02:34:52;8.18;;;2.00;;
53115;SDS011;39010;48.088;7.954;2022-10-26T02:37:22;5.20;;;1.60;;
53115;SDS011;39010;48.088;7.954;2022-10-26T02:39:50;5.38;;;1.80;;
53115;SDS011;39010;48.088;7.954;2022-10-26T02:42:20;7.90;;;2.08;;
53115;SDS011;39010;48.088;7.954;2022-10-26T02:44:50;6.13;;;1.90;;
53115;SDS011;39010;48.088;7.954;2022-10-26T02:47:20;5.00;;;1.90;;
53115;SDS011;39010;48.088;7.954;2022-10-26T02:49:47;5.70;;;1.98;;
53115;SDS011;39010;48.088;7.954;2022-10-26T02:55:05;6.38;;;1.80;;
53115;SDS011;39010;48.088;7.954;2022-10-26T02:57:46;4.13;;;1.77;;
53115;SDS011;39010;48.088;7.954;2022-10-26T03:00:16;5.50;;;1.80;;
53115;SDS011;39010;48.088;7.954;2022-10-26T03:02:44;4.72;;;1.90;;
53115;SDS011;39010;48.088;7.954;2022-10-26T03:05:19;4.63;;;1.80;;
53115;SDS011;39010;48.088;7.954;2022-10-26T03:07:48;6.13;;;1.80;;
53115;SDS011;39010;48.088;7.954;2022-10-26T03:10:14;8.10;;;1.65;;
53115;SDS011;39010;48.088;7.954;2022-10-26T03:12:41;3.63;;;1.77;;
53115;SDS011;39010;48.088;7.954;2022-10-26T03:15:08;4.70;;;1.48;;
53115;SDS011;39010;48.088;7.954;2022-10-26T03:17:34;3.03;;;1.80;;
53115;SDS011;39010;48.088;7.954;2022-10-26T03:20:01;4.43;;;1.73;;
53115;SDS011;39010;48.088;7.954;2022-10-26T03:22:27;5.45;;;1.83;;
53115;SDS011;39010;48.088;7.954;2022-10-26T03:24:54;5.53;;;1.50;;
53115;SDS011;39010;48.088;7.954;2022-10-26T03:29:48;6.75;;;1.90;;
53115;SDS011;39010;48.088;7.954;2022-10-26T03:34:40;5.88;;;2.05;;
53115;SDS011;39010;48.088;7.954;2022-10-26T03:37:07;6.10;;;2.00;;
53115;SDS011;39010;48.088;7.954;2022-10-26T03:39:33;5.78;;;1.95;;
53115;SDS011;39010;48.088;7.954;2022-10-26T03:42:00;7.68;;;2.03;;
53115;SDS011;39010;48.088;7.954;2022-10-26T03:46:53;5.30;;;1.75;;
53115;SDS011;39010;48.088;7.954;2022-10-26T03:51:45;4.97;;;1.88;;
53115;SDS011;39010;48.088;7.954;2022-10-26T03:54:12;5.70;;;1.92;;
53115;SDS011;39010;48.088;7.954;2022-10-26T03:56:38;6.65;;;1.88;;
53115;SDS011;39010;48.088;7.954;2022-10-26T03:59:04;5.13;;;1.90;;
53115;SDS011;39010;48.088;7.954;2022-10-26T04:01:31;4.35;;;1.80;;
53115;SDS011;39010;48.088;7.954;2022-10-26T04:04:01;6.20;;;1.80;;
53115;SDS011;39010;48.088;7.954;2022-10-26T04:06:27;6.97;;;1.70;;
53115;SDS011;39010;48.088;7.954;2022-10-26T04:11:27;4.75;;;1.40;;
53115;SDS011;39010;48.088;7.954;2022-10-26T04:13:54;8.77;;;2.17;;
53115;SDS011;39010;48.088;7.954;2022-10-26T04:16:25;3.60;;;1.60;;
53115;SDS011;39010;48.088;7.954;2022-10-26T04:18:58;4.88;;;1.80;;
53115;SDS011;39010;48.088;7.954;2022-10-26T04:23:51;6.30;;;1.67;;
53115;SDS011;39010;48.088;7.954;2022-10-26T04:26:18;7.20;;;2.03;;
53115;SDS011;39010;48.088;7.954;2022-10-26T04:31:10;9.07;;;1.80;;
53115;SDS011;39010;48.088;7.954;2022-10-26T04:33:37;5.15;;;1.77;;
53115;SDS011;39010;48.088;7.954;2022-10-26T04:38:30;3.70;;;1.75;;
53115;SDS011;39010;48.088;7.954;2022-10-26T04:40:56;12.13;;;1.88;;
53115;SDS011;39010;48.088;7.954;2022-10-26T04:43:22;5.93;;;1.92;;
53115;SDS011;39010;48.088;7.954;2022-10-26T04:48:19;7.57;;;2.08;;
53115;SDS011;39010;48.088;7.954;2022-10-26T04:50:47;2.53;;;1.73;;
53115;SDS011;39010;48.088;7.954;2022-10-26T04:55:40;9.05;;;2.20;;
53115;SDS011;39010;48.088;7.954;2022-10-26T04:58:07;6.90;;;1.92;;
53115;SDS011;39010;48.088;7.954;2022-10-26T05:00:33;7.07;;;1.95;;
53115;SDS011;39010;48.088;7.954;2022-10-26T05:03:00;5.90;;;2.03;;
53115;SDS011;39010;48.088;7.954;2022-10-26T05:05:31;9.27;;;3.67;;
53115;SDS011;39010;48.088;7.954;2022-10-26T05:08:00;7.25;;;2.42;;
53115;SDS011;39010;48.088;7.954;2022-10-26T05:10:27;8.40;;;2.22;;
53115;SDS011;39010;48.088;7.954;2022-10-26T05:12:54;8.93;;;2.53;;
53115;SDS011;39010;48.088;7.954;2022-10-26T05:15:22;7.60;;;2.78;;
53115;SDS011;39010;48.088;7.954;2022-10-26T05:17:58;7.35;;;2.20;;
53115;SDS011;39010;48.088;7.954;2022-10-26T05:20:28;7.28;;;2.30;;
53115;SDS011;39010;48.088;7.954;2022-10-26T05:22:57;6.03;;;2.45;;
53115;SDS011;39010;48.088;7.954;2022-10-26T05:25:24;5.80;;;2.50;;
53115;SDS011;39010;48.088;7.954;2022-10-26T05:27:51;5.18;;;2.40;;
53115;SDS011;39010;48.088;7.954;2022-10-26T05:30:24;5.25;;;2.60;;
53115;SDS011;39010;48.088;7.954;2022-10-26T05:32:55;8.98;;;2.65;;
53115;SDS011;39010;48.088;7.954;2022-10-26T05:35:23;5.78;;;2.60;;
53115;SDS011;39010;48.088;7.954;2022-10-26T05:37:49;8.63;;;2.83;;
53115;SDS011;39010;48.088;7.954;2022-10-26T05:42:43;7.50;;;3.60;;
53115;SDS011;39010;48.088;7.954;2022-10-26T05:45:10;9.80;;;2.97;;
53115;SDS011;39010;48.088;7.954;2022-10-26T05:47:40;6.47;;;2.47;;
53115;SDS011;39010;48.088;7.954;2022-10-26T05:50:08;4.95;;;2.45;;
53115;SDS011;39010;48.088;7.954;2022-10-26T05:52:39;9.95;;;2.38;;
53115;SDS011;39010;48.088;7.954;2022-10-26T05:55:07;7.65;;;2.80;;
53115;SDS011;39010;48.088;7.954;2022-10-26T05:57:34;6.00;;;2.90;;
53115;SDS011;39010;48.088;7.954;2022-10-26T06:00:21;4.55;;;2.75;;
53115;SDS011;39010;48.088;7.954;2022-10-26T06:03:06;9.80;;;3.05;;
53115;SDS011;39010;48.088;7.954;2022-10-26T06:05:53;5.60;;;3.35;;
53115;SDS011;39010;48.088;7.954;2022-10-26T06:08:22;6.68;;;2.53;;
53115;SDS011;39010;48.088;7.954;2022-10-26T06:10:51;13.57;;;3.10;;
53115;SDS011;39010;48.088;7.954;2022-10-26T06:13:19;6.10;;;2.90;;
53115;SDS011;39010;48.088;7.954;2022-10-26T06:18:49;11.32;;;3.67;;
53115;SDS011;39010;48.088;7.954;2022-10-26T06:24:16;6.63;;;3.03;;
53115;SDS011;39010;48.088;7.954;2022-10-26T06:26:53;11.32;;;3.25;;
53115;SDS011;39010;48.088;7.954;2022-10-26T06:29:47;6.07;;;3.05;;
53115;SDS011;39010;48.088;7.954;2022-10-26T06:32:21;9.48;;;3.30;;
53115;SDS011;39010;48.088;7.954;2022-10-26T06:34:50;7.25;;;3.08;;
53115;SDS011;39010;48.088;7.954;2022-10-26T06:37:22;8.75;;;3.13;;
53115;SDS011;39010;48.088;7.954;2022-10-26T06:39:50;8.77;;;2.97;;
53115;SDS011;39010;48.088;7.954;2022-10-26T06:42:20;9.43;;;3.33;;
53115;SDS011;39010;48.088;7.954;2022-10-26T06:44:47;9.00;;;3.28;;
53115;SDS011;39010;48.088;7.954;2022-10-26T06:47:22;7.28;;;3.55;;
53115;SDS011;39010;48.088;7.954;2022-10-26T06:50:00;11.38;;;3.97;;
53115;SDS011;39010;48.088;7.954;2022-10-26T06:52:47;9.57;;;3.78;;
53115;SDS011;39010;48.088;7.954;2022-10-26T06:55:22;14.70;;;4.15;;
53115;SDS011;39010;48.088;7.954;2022-10-26T06:57:49;11.40;;;4.00;;
53115;SDS011;39010;48.088;7.954;2022-10-26T07:00:17;11.57;;;5.55;;
53115;SDS011;39010;48.088;7.954;2022-10-26T07:02:46;10.02;;;4.88;;
53115;SDS011;39010;48.088;7.954;2022-10-26T07:05:16;11.23;;;5.07;;
53115;SDS011;39010;48.088;7.954;2022-10-26T07:10:13;10.85;;;4.15;;
53115;SDS011;39010;48.088;7.954;2022-10-26T07:12:40;7.93;;;4.07;;
53115;SDS011;39010;48.088;7.954;2022-10-26T07:15:07;10.20;;;4.03;;
53115;SDS011;39010;48.088;7.954;2022-10-26T07:17:45;11.80;;;3.50;;
53115;SDS011;39010;48.088;7.954;2022-10-26T07:20:18;7.53;;;3.67;;
53115;SDS011;39010;48.088;7.954;2022-10-26T07:22:52;8.00;;;3.58;;
53115;SDS011;39010;48.088;7.954;2022-10-26T07:25:21;9.25;;;3.50;;
53115;SDS011;39010;48.088;7.954;2022-10-26T07:27:49;8.70;;;3.70;;
53115;SDS011;39010;48.088;7.954;2022-10-26T07:30:16;8.80;;;4.10;;
53115;SDS011;39010;48.088;7.954;2022-10-26T07:32:43;9.32;;;4.03;;
53115;SDS011;39010;48.088;7.954;2022-10-26T07:35:09;14.13;;;5.28;;
53115;SDS011;39010;48.088;7.954;2022-10-26T07:37:36;8.10;;;3.63;;
53115;SDS011;39010;48.088;7.954;2022-10-26T07:40:03;10.10;;;3.55;;
53115;SDS011;39010;48.088;7.954;2022-10-26T07:42:32;9.82;;;3.80;;
53115;SDS011;39010;48.088;7.954;2022-10-26T07:44:59;9.98;;;3.60;;
53115;SDS011;39010;48.088;7.954;2022-10-26T07:47:25;7.55;;;3.50;;
53115;SDS011;39010;48.088;7.954;2022-10-26T07:49:52;9.60;;;3.80;;
53115;SDS011;39010;48.088;7.954;2022-10-26T07:52:19;9.55;;;4.20;;
53115;SDS011;39010;48.088;7.954;2022-10-26T07:57:12;14.93;;;5.05;;
53115;SDS011;39010;48.088;7.954;2022-10-26T07:59:38;11.32;;;6.22;;
53115;SDS011;39010;48.088;7.954;2022-10-26T08:02:05;14.25;;;7.03;;
53115;SDS011;39010;48.088;7.954;2022-10-26T08:04:32;16.38;;;5.82;;
53115;SDS011;39010;48.088;7.954;2022-10-26T08:06:58;11.15;;;4.95;;
53115;SDS011;39010;48.088;7.954;2022-10-26T08:11:51;11.60;;;4.53;;
53115;SDS011;39010;48.088;7.954;2022-10-26T08:14:18;14.88;;;5.10;;
53115;SDS011;39010;48.088;7.954;2022-10-26T08:16:45;9.65;;;4.53;;
53115;SDS011;39010;48.088;7.954;2022-10-26T08:19:11;8.75;;;3.95;;
53115;SDS011;39010;48.088;7.954;2022-10-26T08:21:38;9.80;;;4.18;;
53115;SDS011;39010;48.088;7.954;2022-10-26T08:24:06;11.70;;;4.32;;
53115;SDS011;39010;48.088;7.954;2022-10-26T08:26:33;9.52;;;4.10;;
53115;SDS011;39010;48.088;7.954;2022-10-26T08:29:00;11.27;;;4.57;;
53115;SDS011;39010;48.088;7.954;2022-10-26T08:33:55;9.82;;;4.00;;
53115;SDS011;39010;48.088;7.954;2022-10-26T08:36:22;10.45;;;4.45;;
53115;SDS011;39010;48.088;7.954;2022-10-26T08:38:50;13.48;;;4.75;;
53115;SDS011;39010;48.088;7.954;2022-10-26T08:41:19;7.97;;;3.80;;
53115;SDS011;39010;48.088;7.954;2022-10-26T08:43:58;10.73;;;4.47;;
53115;SDS011;39010;48.088;7.954;2022-10-26T08:46:34;11.70;;;4.75;;
53115;SDS011;39010;48.088;7.954;2022-10-26T08:51:59;9.23;;;4.28;;
53115;SDS011;39010;48.088;7.954;2022-10-26T08:54:31;11.23;;;3.85;;
53115;SDS011;39010;48.088;7.954;2022-10-26T08:57:11;11.30;;;4.25;;
53115;SDS011;39010;48.088;7.954;2022-10-26T08:59:51;13.32;;;3.83;;
53115;SDS011;39010;48.088;7.954;2022-10-26T09:02:21;12.73;;;4.20;;
53115;SDS011;39010;48.088;7.954;2022-10-26T09:04:50;11.40;;;4.55;;
53115;SDS011;39010;48.088;7.954;2022-10-26T09:10:03;9.48;;;4.00;;
53115;SDS011;39010;48.088;7.954;2022-10-26T09:12:50;12.57;;;4.40;;
53115;SDS011;39010;48.088;7.954;2022-10-26T09:26:42;9.55;;;4.22;;
53115;SDS011;39010;48.088;7.954;2022-10-26T09:29:18;9.82;;;4.57;;
53115;SDS011;39010;48.088;7.954;2022-10-26T09:31:48;11.13;;;4.22;;
53115;SDS011;39010;48.088;7.954;2022-10-26T09:34:20;10.55;;;4.03;;
53115;SDS011;39010;48.088;7.954;2022-10-26T09:36:52;23.13;;;5.95;;
53115;SDS011;39010;48.088;7.954;2022-10-26T09:39:37;12.10;;;4.13;;
53115;SDS011;39010;48.088;7.954;2022-10-26T09:42:14;12.07;;;4.57;;
53115;SDS011;39010;48.088;7.954;2022-10-26T09:44:53;12.05;;;4.45;;
53115;SDS011;39010;48.088;7.954;2022-10-26T09:47:37;16.75;;;4.90;;
53115;SDS011;39010;48.088;7.954;2022-10-26T09:50:06;8.63;;;4.45;;
53115;SDS011;39010;48.088;7.954;2022-10-26T09:52:44;9.70;;;4.82;;
53115;SDS011;39010;48.088;7.954;2022-10-26T09:57:41;12.70;;;4.78;;
53115;SDS011;39010;48.088;7.954;2022-10-26T10:00:14;11.15;;;4.50;;
53115;SDS011;39010;48.088;7.954;2022-10-26T10:02:43;13.52;;;5.10;;
53115;SDS011;39010;48.088;7.954;2022-10-26T10:05:28;13.77;;;5.63;;
53115;SDS011;39010;48.088;7.954;2022-10-26T10:08:20;13.50;;;5.13;;
53115;SDS011;39010;48.088;7.954;2022-10-26T10:10:55;11.52;;;5.22;;
53115;SDS011;39010;48.088;7.954;2022-10-26T10:16:01;16.15;;;4.80;;
53115;SDS011;39010;48.088;7.954;2022-10-26T10:18:31;13.25;;;4.97;;
53115;SDS011;39010;48.088;7.954;2022-10-26T10:21:08;13.80;;;5.22;;
53115;SDS011;39010;48.088;7.954;2022-10-26T10:23:46;14.68;;;6.38;;
53115;SDS011;39010;48.088;7.954;2022-10-26T10:26:16;13.65;;;6.18;;
53115;SDS011;39010;48.088;7.954;2022-10-26T10:28:57;16.70;;;7.53;;
53115;SDS011;39010;48.088;7.954;2022-10-26T10:31:27;25.20;;;7.97;;
53115;SDS011;39010;48.088;7.954;2022-10-26T10:33:55;20.50;;;7.88;;
53115;SDS011;39010;48.088;7.954;2022-10-26T10:36:22;23.08;;;7.97;;
53115;SDS011;39010;48.088;7.954;2022-10-26T10:38:52;18.92;;;8.23;;
53115;SDS011;39010;48.088;7.954;2022-10-26T10:41:30;18.77;;;7.45;;
53115;SDS011;39010;48.088;7.954;2022-10-26T10:44:04;16.90;;;7.47;;
53115;SDS011;39010;48.088;7.954;2022-10-26T10:46:37;19.13;;;6.90;;
53115;SDS011;39010;48.088;7.954;2022-10-26T10:49:05;18.05;;;6.40;;
53115;SDS011;39010;48.088;7.954;2022-10-26T10:51:45;18.23;;;6.55;;
53115;SDS011;39010;48.088;7.954;2022-10-26T10:54:32;21.08;;;6.60;;
53115;SDS011;39010;48.088;7.954;2022-10-26T10:57:06;14.98;;;6.00;;
53115;SDS011;39010;48.088;7.954;2022-10-26T10:59:47;15.45;;;5.80;;
53115;SDS011;39010;48.088;7.954;2022-10-26T11:05:18;10.60;;;4.03;;
53115;SDS011;39010;48.088;7.954;2022-10-26T11:10:22;10.32;;;2.67;;
53115;SDS011;39010;48.088;7.954;2022-10-26T11:12:56;10.00;;;2.78;;
53115;SDS011;39010;48.088;7.954;2022-10-26T11:15:25;12.75;;;2.83;;
53115;SDS011;39010;48.088;7.954;2022-10-26T11:20:52;11.02;;;2.92;;
53115;SDS011;39010;48.088;7.954;2022-10-26T11:23:34;10.68;;;2.63;;
53115;SDS011;39010;48.088;7.954;2022-10-26T11:26:11;13.88;;;3.08;;
53115;SDS011;39010;48.088;7.954;2022-10-26T11:28:59;18.10;;;3.92;;
53115;SDS011;39010;48.088;7.954;2022-10-26T11:31:41;16.48;;;3.20;;
53115;SDS011;39010;48.088;7.954;2022-10-26T11:34:25;14.15;;;3.03;;
53115;SDS011;39010;48.088;7.954;2022-10-26T11:37:10;14.13;;;3.45;;
53115;SDS011;39010;48.088;7.954;2022-10-26T11:39:56;16.77;;;3.30;;
53115;SDS011;39010;48.088;7.954;2022-10-26T11:45:12;15.43;;;3.65;;
53115;SDS011;39010;48.088;7.954;2022-10-26T11:47:56;18.98;;;3.47;;
53115;SDS011;39010;48.088;7.954;2022-10-26T11:50:29;16.33;;;3.58;;
53115;SDS011;39010;48.088;7.954;2022-10-26T11:53:01;11.52;;;2.97;;
53115;SDS011;39010;48.088;7.954;2022-10-26T11:55:35;12.25;;;3.00;;
53115;SDS011;39010;48.088;7.954;2022-10-26T11:58:03;16.35;;;3.40;;
53115;SDS011;39010;48.088;7.954;2022-10-26T12:00:30;16.40;;;3.30;;
53115;SDS011;39010;48.088;7.954;2022-10-26T12:03:08;13.85;;;3.45;;
53115;SDS011;39010;48.088;7.954;2022-10-26T12:08:08;17.33;;;4.15;;
53115;SDS011;39010;48.088;7.954;2022-10-26T12:10:40;10.85;;;3.00;;
53115;SDS011;39010;48.088;7.954;2022-10-26T12:15:48;12.77;;;2.97;;
53115;SDS011;39010;48.088;7.954;2022-10-26T12:18:36;13.48;;;3.05;;
53115;SDS011;39010;48.088;7.954;2022-10-26T12:21:22;12.60;;;3.60;;
53115;SDS011;39010;48.088;7.954;2022-10-26T12:24:03;11.75;;;3.10;;
53115;SDS011;39010;48.088;7.954;2022-10-26T12:26:52;11.73;;;3.08;;
53115;SDS011;39010;48.088;7.954;2022-10-26T12:29:25;12.65;;;3.25;;
53115;SDS011;39010;48.088;7.954;2022-10-26T12:31:57;11.85;;;2.70;;
53115;SDS011;39010;48.088;7.954;2022-10-26T12:34:56;13.88;;;3.53;;
53115;SDS011;39010;48.088;7.954;2022-10-26T12:39:48;10.60;;;2.70;;
53115;SDS011;39010;48.088;7.954;2022-10-26T12:52:48;12.13;;;3.33;;
53115;SDS011;39010;48.088;7.954;2022-10-26T13:01:56;14.10;;;2.88;;
53115;SDS011;39010;48.088;7.954;2022-10-26T13:04:23;11.98;;;2.85;;
53115;SDS011;39010;48.088;7.954;2022-10-26T13:07:16;12.95;;;3.20;;
53115;SDS011;39010;48.088;7.954;2022-10-26T13:09:50;16.00;;;3.40;;
53115;SDS011;39010;48.088;7.954;2022-10-26T13:12:24;11.73;;;2.85;;
53115;SDS011;39010;48.088;7.954;2022-10-26T13:15:03;11.90;;;2.80;;
53115;SDS011;39010;48.088;7.954;2022-10-26T13:17:31;11.25;;;2.80;;
53115;SDS011;39010;48.088;7.954;2022-10-26T13:20:00;9.95;;;2.90;;
53115;SDS011;39010;48.088;7.954;2022-10-26T13:22:30;11.82;;;2.97;;
53115;SDS011;39010;48.088;7.954;2022-10-26T13:24:58;21.77;;;7.55;;
53115;SDS011;39010;48.088;7.954;2022-10-26T13:32:29;10.00;;;2.83;;
53115;SDS011;39010;48.088;7.954;2022-10-26T13:35:01;12.40;;;2.83;;
53115;SDS011;39010;48.088;7.954;2022-10-26T13:37:30;15.25;;;3.00;;
53115;SDS011;39010;48.088;7.954;2022-10-26T13:39:58;13.85;;;2.90;;
53115;SDS011;39010;48.088;7.954;2022-10-26T13:42:26;13.90;;;2.83;;
53115;SDS011;39010;48.088;7.954;2022-10-26T13:44:58;15.38;;;3.10;;
53115;SDS011;39010;48.088;7.954;2022-10-26T13:47:35;8.23;;;2.58;;
53115;SDS011;39010;48.088;7.954;2022-10-26T13:50:04;12.15;;;2.95;;
53115;SDS011;39010;48.088;7.954;2022-10-26T13:52:41;16.33;;;3.20;;
53115;SDS011;39010;48.088;7.954;2022-10-26T13:55:30;14.05;;;2.97;;
53115;SDS011;39010;48.088;7.954;2022-10-26T14:03:39;9.85;;;2.90;;
53115;SDS011;39010;48.088;7.954;2022-10-26T14:08:33;11.52;;;2.80;;
53115;SDS011;39010;48.088;7.954;2022-10-26T14:11:00;14.25;;;2.90;;
53115;SDS011;39010;48.088;7.954;2022-10-26T14:13:28;12.10;;;2.83;;
53115;SDS011;39010;48.088;7.954;2022-10-26T14:15:55;13.80;;;3.00;;
53115;SDS011;39010;48.088;7.954;2022-10-26T14:18:24;13.60;;;3.83;;
53115;SDS011;39010;48.088;7.954;2022-10-26T14:21:38;10.73;;;2.92;;
53115;SDS011;39010;48.088;7.954;2022-10-26T14:23:49;13.57;;;3.47;;
53115;SDS011;39010;48.088;7.954;2022-10-26T14:26:22;12.00;;;2.80;;
53115;SDS011;39010;48.088;7.954;2022-10-26T14:28:53;11.38;;;2.80;;
53115;SDS011;39010;48.088;7.954;2022-10-26T14:31:25;11.30;;;3.30;;
53115;SDS011;39010;48.088;7.954;2022-10-26T14:33:54;12.05;;;2.90;;
53115;SDS011;39010;48.088;7.954;2022-10-26T14:36:28;13.60;;;2.97;;
53115;SDS011;39010;48.088;7.954;2022-10-26T14:39:11;11.35;;;3.00;;
53115;SDS011;39010;48.088;7.954;2022-10-26T14:41:40;13.73;;;2.97;;
53115;SDS011;39010;48.088;7.954;2022-10-26T14:44:17;12.95;;;3.35;;
53115;SDS011;39010;48.088;7.954;2022-10-26T14:46:47;14.23;;;2.70;;
53115;SDS011;39010;48.088;7.954;2022-10-26T14:49:18;13.38;;;3.00;;
53115;SDS011;39010;48.088;7.954;2022-10-26T14:51:48;13.75;;;3.15;;
53115;SDS011;39010;48.088;7.954;2022-10-26T14:54:25;15.35;;;2.90;;
53115;SDS011;39010;48.088;7.954;2022-10-26T14:56:54;12.30;;;3.25;;
53115;SDS011;39010;48.088;7.954;2022-10-26T14:59:26;10.43;;;3.15;;
53115;SDS011;39010;48.088;7.954;2022-10-26T15:01:55;11.95;;;3.00;;
53115;SDS011;39010;48.088;7.954;2022-10-26T15:04:29;10.27;;;2.88;;
53115;SDS011;39010;48.088;7.954;2022-10-26T15:12:13;12.68;;;3.00;;
53115;SDS011;39010;48.088;7.954;2022-10-26T15:15:13;8.23;;;2.65;;
53115;SDS011;39010;48.088;7.954;2022-10-26T15:17:48;9.25;;;2.78;;
53115;SDS011;39010;48.088;7.954;2022-10-26T15:20:21;14.48;;;2.97;;
53115;SDS011;39010;48.088;7.954;2022-10-26T15:22:50;13.15;;;2.70;;
53115;SDS011;39010;48.088;7.954;2022-10-26T15:25:20;15.88;;;2.80;;
53115;SDS011;39010;48.088;7.954;2022-10-26T15:27:49;12.43;;;2.88;;
53115;SDS011;39010;48.088;7.954;2022-10-26T15:30:21;11.00;;;3.15;;
53115;SDS011;39010;48.088;7.954;2022-10-26T15:32:53;13.07;;;3.05;;
53115;SDS011;39010;48.088;7.954;2022-10-26T15:35:27;14.07;;;3.20;;
53115;SDS011;39010;48.088;7.954;2022-10-26T15:37:56;10.88;;;2.92;;
53115;SDS011;39010;48.088;7.954;2022-10-26T15:40:24;12.20;;;3.40;;
53115;SDS011;39010;48.088;7.954;2022-10-26T15:42:57;14.07;;;3.42;;
53115;SDS011;39010;48.088;7.954;2022-10-26T15:45:26;16.00;;;4.00;;
53115;SDS011;39010;48.088;7.954;2022-10-26T15:47:55;14.63;;;4.18;;
53115;SDS011;39010;48.088;7.954;2022-10-26T15:50:27;14.02;;;3.40;;
53115;SDS011;39010;48.088;7.954;2022-10-26T15:53:00;17.85;;;3.58;;
53115;SDS011;39010;48.088;7.954;2022-10-26T15:55:33;9.57;;;3.22;;
53115;SDS011;39010;48.088;7.954;2022-10-26T15:58:01;13.57;;;3.47;;
53115;SDS011;39010;48.088;7.954;2022-10-26T16:00:27;13.18;;;3.13;;
53115;SDS011;39010;48.088;7.954;2022-10-26T16:02:53;12.50;;;3.25;;
53115;SDS011;39010;48.088;7.954;2022-10-26T16:05:20;14.73;;;3.33;;
53115;SDS011;39010;48.088;7.954;2022-10-26T16:07:47;14.55;;;3.25;;
53115;SDS011;39010;48.088;7.954;2022-10-26T16:10:19;14.43;;;3.72;;
53115;SDS011;39010;48.088;7.954;2022-10-26T16:12:47;16.58;;;3.50;;
53115;SDS011;39010;48.088;7.954;2022-10-26T16:15:16;14.93;;;3.30;;
53115;SDS011;39010;48.088;7.954;2022-10-26T16:17:48;13.98;;;3.70;;
53115;SDS011;39010;48.088;7.954;2022-10-26T16:20:17;16.95;;;4.47;;
53115;SDS011;39010;48.088;7.954;2022-10-26T16:22:46;12.75;;;3.50;;
53115;SDS011;39010;48.088;7.954;2022-10-26T16:25:18;10.52;;;3.30;;
53115;SDS011;39010;48.088;7.954;2022-10-26T16:27:49;12.45;;;3.17;;
53115;SDS011;39010;48.088;7.954;2022-10-26T16:30:18;14.48;;;3.60;;
53115;SDS011;39010;48.088;7.954;2022-10-26T16:32:45;13.45;;;3.83;;
53115;SDS011;39010;48.088;7.954;2022-10-26T16:35:12;16.95;;;3.83;;
53115;SDS011;39010;48.088;7.954;2022-10-26T16:37:39;17.67;;;3.92;;
53115;SDS011;39010;48.088;7.954;2022-10-26T16:40:06;15.32;;;4.95;;
53115;SDS011;39010;48.088;7.954;2022-10-26T16:42:34;11.38;;;3.35;;
53115;SDS011;39010;48.088;7.954;2022-10-26T16:45:01;10.95;;;3.38;;
53115;SDS011;39010;48.088;7.954;2022-10-26T16:47:30;19.80;;;4.00;;
53115;SDS011;39010;48.088;7.954;2022-10-26T16:50:01;15.00;;;4.97;;
53115;SDS011;39010;48.088;7.954;2022-10-26T16:52:28;11.35;;;3.88;;
53115;SDS011;39010;48.088;7.954;2022-10-26T16:57:22;12.95;;;4.90;;
53115;SDS011;39010;48.088;7.954;2022-10-26T16:59:48;11.85;;;4.38;;
53115;SDS011;39010;48.088;7.954;2022-10-26T17:02:15;18.23;;;5.75;;
53115;SDS011;39010;48.088;7.954;2022-10-26T17:04:42;16.42;;;5.13;;
53115;SDS011;39010;48.088;7.954;2022-10-26T17:07:09;15.95;;;4.55;;
53115;SDS011;39010;48.088;7.954;2022-10-26T17:09:36;15.13;;;4.75;;
53115;SDS011;39010;48.088;7.954;2022-10-26T17:12:03;17.45;;;5.00;;
53115;SDS011;39010;48.088;7.954;2022-10-26T17:14:30;19.38;;;5.13;;
53115;SDS011;39010;48.088;7.954;2022-10-26T17:16:57;17.35;;;5.38;;
53115;SDS011;39010;48.088;7.954;2022-10-26T17:19:42;15.30;;;5.35;;
53115;SDS011;39010;48.088;7.954;2022-10-26T17:24:35;17.88;;;5.13;;
53115;SDS011;39010;48.088;7.954;2022-10-26T17:29:28;11.20;;;4.07;;
53115;SDS011;39010;48.088;7.954;2022-10-26T17:31:54;11.13;;;4.90;;
53115;SDS011;39010;48.088;7.954;2022-10-26T17:36:47;14.77;;;4.60;;
53115;SDS011;39010;48.088;7.954;2022-10-26T17:41:41;15.00;;;4.47;;